Data for 05/24/2015

Time Sea-Level Adjusted Pressure Absolute Pressure Temperature Relative Humidity Dew Point   
(mb) (inHg) (mb) (inHg) (C) (F) (%) (C) (F)
00:05 1020 30.12 849 25.07 8.3 46.9 90 6.7 44.1
00:10 1020 30.12 849 25.07 8.2 46.8 90 6.7 44.1
00:15 1020 30.12 849 25.07 8.2 46.8 90 6.7 44.1
00:20 1020 30.12 849 25.07 8.2 46.8 89 6.6 43.8
00:25 1020 30.12 849 25.07 8.3 46.9 88 6.5 43.7
00:30 1020 30.12 849 25.07 8.3 47 89 6.6 43.9
00:35 1020 30.12 849 25.07 8.4 47.1 86 6.2 43.1
00:40 1020 30.12 849 25.07 8.5 47.3 84 5.9 42.7
00:45 1020 30.12 849 25.07 8.5 47.3 84 5.9 42.6
00:50 1020 30.12 849 25.07 8.4 47.2 83 5.8 42.4
00:55 1020 30.12 849 25.07 8.4 47.1 83 5.6 42.1
01:00 1020 30.12 849 25.07 8.3 47 82 5.4 41.8
01:05 1020 30.12 849 25.07 8.3 46.9 82 5.4 41.7
01:10 1020 30.12 849 25.07 8.3 47 81 5.3 41.6
01:15 1020 30.12 849 25.07 8.4 47.1 81 5.3 41.5
01:20 1020 30.12 849 25.07 8.4 47.2 80 5.2 41.4
01:25 1020 30.12 849 25.07 8.5 47.2 81 5.4 41.8
01:30 1020 30.12 849 25.07 8.4 47 81 5.3 41.5
01:35 1020 30.12 849 25.07 8.4 47.1 79 5 41.1
01:40 1020 30.12 849 25.07 8.4 47 81 5.3 41.5
01:45 1020 30.12 849 25.07 8.2 46.8 80 5.1 41.1
01:50 1020 30.12 849 25.07 8.2 46.7 81 5.2 41.3
01:55 1020 30.12 849 25.07 8.1 46.5 82 5.1 41.3
02:00 1020 30.12 849 25.07 8.1 46.5 80 4.9 40.7
02:05 1020 30.12 849 25.07 8.1 46.6 80 4.8 40.6
02:10 1020 30.12 849 25.07 8.1 46.6 79 4.7 40.5
02:15 1019 30.09 849 25.07 8.2 46.7 79 4.7 40.4
02:20 1019 30.09 849 25.07 8.2 46.7 78 4.7 40.4
02:25 1019 30.09 849 25.07 8.2 46.8 79 4.7 40.5
02:30 1019 30.09 849 25.07 8.2 46.7 79 4.8 40.6
02:35 1019 30.09 849 25.07 8.2 46.8 78 4.7 40.4
02:40 1019 30.09 849 25.07 8.3 46.9 78 4.7 40.5
02:45 1019 30.09 849 25.07 8.3 46.9 80 4.9 40.9
02:50 1019 30.09 849 25.07 8.2 46.8 79 4.8 40.6
02:55 1019 30.09 849 25.07 8.2 46.8 79 4.8 40.7
03:00 1019 30.09 849 25.07 8.3 47 79 4.9 40.8
03:05 1019 30.09 849 25.07 8.3 47 80 5.1 41.1
03:10 1019 30.09 849 25.07 8.2 46.8 83 5.5 42
03:15 1019 30.09 849 25.07 8 46.5 88 6.2 43.1
03:20 1019 30.09 849 25.07 7.9 46.2 87 5.9 42.7
03:25 1019 30.09 849 25.07 7.9 46.3 89 6.3 43.3
03:30 1019 30.09 849 25.07 7.8 46.1 91 6.4 43.5
03:35 1019 30.09 849 25.07 7.7 45.9 91 6.4 43.5
03:40 1019 30.09 849 25.07 7.7 45.8 92 6.4 43.5
03:45 1019 30.09 849 25.07 7.6 45.8 92 6.4 43.5
03:50 1019 30.09 849 25.07 7.6 45.7 92 6.4 43.5
03:55 1019 30.09 849 25.07 7.6 45.7 92 6.4 43.6
04:00 1019 30.09 849 25.07 7.6 45.7 92 6.4 43.6
04:05 1019 30.09 849 25.07 7.6 45.7 92 6.4 43.6
04:10 1019 30.09 849 25.07 7.6 45.7 92 6.5 43.6
04:15 1019 30.09 849 25.07 7.6 45.7 92 6.4 43.6
04:20 1019 30.09 849 25.07 7.6 45.7 92 6.4 43.6
04:25 1019 30.09 849 25.07 7.6 45.7 92 6.4 43.5
04:30 1019 30.09 849 25.07 7.6 45.7 92 6.4 43.5
04:35 1019 30.09 849 25.07 7.6 45.7 92 6.4 43.5
04:40 1019 30.09 849 25.07 7.7 45.8 92 6.4 43.6
04:45 1019 30.09 849 25.07 7.7 45.8 92 6.4 43.6
04:50 1019 30.09 848 25.04 7.7 45.9 92 6.5 43.6
04:55 1019 30.09 848 25.04 7.7 45.9 92 6.4 43.6
05:00 1019 30.09 848 25.04 7.8 46 92 6.5 43.6
05:05 1019 30.09 848 25.04 7.7 45.9 91 6.4 43.5
05:10 1019 30.09 849 25.07 7.7 45.9 91 6.4 43.5
05:15 1019 30.09 849 25.07 7.8 46 91 6.4 43.5
05:20 1019 30.09 849 25.07 7.8 46 90 6.3 43.3
05:25 1019 30.09 849 25.07 7.8 46 90 6.3 43.3
05:30 1019 30.09 849 25.07 7.8 46.1 89 6.2 43.1
05:35 1019 30.09 849 25.07 7.9 46.1 89 6.1 43
05:40 1019 30.09 849 25.07 7.9 46.1 87 5.9 42.6
05:45 1019 30.09 849 25.07 7.9 46.2 85 5.5 42
05:50 1019 30.09 849 25.07 7.9 46.3 85 5.6 42
05:55 1019 30.09 849 25.07 7.9 46.3 85 5.6 42
06:00 1019 30.09 849 25.07 7.9 46.2 85 5.5 42
06:05 1019 30.09 849 25.07 8 46.3 84 5.5 41.8
06:10 1019 30.09 849 25.07 8 46.4 84 5.5 41.9
06:15 1019 30.09 849 25.07 8 46.5 85 5.6 42.1
06:20 1019 30.09 849 25.07 8.1 46.5 84 5.6 42
06:25 1019 30.09 849 25.07 8.1 46.5 84 5.6 42
06:30 1019 30.09 849 25.07 8.1 46.5 85 5.7 42.2
06:35 1019 30.09 849 25.07 8.1 46.5 84 5.6 42.1
06:40 1019 30.09 849 25.07 8.1 46.7 84 5.6 42
06:45 1019 30.09 849 25.07 8.1 46.5 84 5.6 42.1
06:50 1019 30.09 849 25.07 8 46.4 84 5.4 41.7
06:55 1019 30.09 849 25.07 7.8 46.1 85 5.4 41.7
07:00 1019 30.09 849 25.07 7.7 45.8 85 5.4 41.7
07:05 1019 30.09 849 25.07 7.6 45.7 86 5.4 41.8
07:10 1019 30.09 849 25.07 7.6 45.7 86 5.4 41.7
07:15 1019 30.09 849 25.07 7.6 45.6 86 5.4 41.7
07:20 1019 30.09 849 25.07 7.6 45.6 85 5.3 41.5
07:25 1019 30.09 849 25.07 7.6 45.6 85 5.2 41.4
07:30 1019 30.09 848 25.04 7.5 45.6 85 5.1 41.2
07:35 1019 30.09 848 25.04 7.5 45.6 84 5 40.9
07:40 1019 30.09 848 25.04 7.6 45.6 83 4.9 40.9
07:45 1019 30.09 849 25.07 7.5 45.6 85 5.2 41.3
07:50 1019 30.09 848 25.04 7.7 45.8 83 5 41.1
07:55 1019 30.09 848 25.04 7.8 46.1 83 5.1 41.2
08:00 1019 30.09 849 25.07 8 46.5 81 5 41
08:05 1019 30.09 848 25.04 8.2 46.8 80 5.1 41.1
08:10 1019 30.09 848 25.04 8.4 47.2 79 5 41.1
08:15 1019 30.09 848 25.04 8.5 47.3 78 5 41
08:20 1019 30.09 848 25.04 8.7 47.6 78 5 41
08:25 1019 30.09 848 25.04 8.7 47.7 77 5 41
08:30 1019 30.09 848 25.04 8.9 47.9 78 5.2 41.4
08:35 1019 30.09 848 25.04 9.2 48.5 77 5.4 41.6
08:40 1019 30.09 848 25.04 9.3 48.7 75 5.1 41.2
08:45 1019 30.09 848 25.04 9.5 49.1 73 4.9 40.9
08:50 1019 30.09 848 25.04 9.3 48.8 72 4.6 40.3
08:55 1019 30.09 848 25.04 9.5 49.2 73 4.9 40.9
09:00 1019 30.09 848 25.04 10 49.9 70 4.8 40.6
09:05 1019 30.09 848 25.04 10.1 50.3 69 4.7 40.4
09:10 1019 30.09 848 25.04 10.2 50.3 68 4.5 40
09:15 1019 30.09 848 25.04 10.4 50.7 68 4.8 40.7
09:20 1019 30.09 848 25.04 10.3 50.5 68 4.6 40.3
09:25 1019 30.09 848 25.04 10.3 50.5 68 4.7 40.5
09:30 1019 30.09 848 25.04 10.6 51 67 4.8 40.7
09:35 1019 30.09 848 25.04 10.3 50.5 68 4.6 40.2
09:40 1019 30.09 848 25.04 10.4 50.7 68 4.7 40.5
09:45 1019 30.09 848 25.04 10 50 69 4.7 40.4
09:50 1019 30.09 848 25.04 10 50.1 69 4.7 40.4
09:55 1019 30.09 848 25.04 9.8 49.6 69 4.4 40
10:00 1019 30.09 848 25.04 9.5 49.1 73 4.8 40.7
10:05 1019 30.09 848 25.04 9.2 48.5 75 5.1 41.2
10:10 1019 30.09 848 25.04 9 48.2 76 5 41
10:15 1019 30.09 848 25.04 8.9 48.1 77 5.1 41.2
10:20 1019 30.09 848 25.04 8.9 48 78 5.3 41.5
10:25 1019 30.09 848 25.04 9 48.3 76 5 41
10:30 1019 30.09 848 25.04 9.2 48.6 74 4.8 40.6
10:35 1019 30.09 848 25.04 9.4 48.9 73 4.7 40.5
10:40 1019 30.09 848 25.04 9.4 48.9 75 5.2 41.4
10:45 1019 30.09 848 25.04 9.8 49.6 73 5.2 41.4
10:50 1019 30.09 848 25.04 9.9 49.9 69 4.5 40.2
10:55 1019 30.09 848 25.04 9.9 49.8 67 4 39.3
11:00 1019 30.09 848 25.04 10.1 50.2 69 4.7 40.4
11:05 1019 30.09 848 25.04 10.5 50.8 65 4.2 39.6
11:10 1019 30.09 848 25.04 10.6 51 64 4.1 39.3
11:15 1019 30.09 848 25.04 10.8 51.4 65 4.5 40
11:20 1019 30.09 848 25.04 11.1 52 63 4.5 40.1
11:25 1019 30.09 848 25.04 11.4 52.4 63 4.7 40.4
11:30 1019 30.09 848 25.04 11.1 51.9 67 5.2 41.3
11:35 1019 30.09 848 25.04 11 51.9 65 4.7 40.4
11:40 1018 30.06 848 25.04 11 51.8 67 5.1 41.1
11:45 1018 30.06 848 25.04 11 51.9 65 4.8 40.6
11:50 1018 30.06 848 25.04 11.2 52.2 62 4.2 39.5
11:55 1018 30.06 848 25.04 11.1 52 67 5.1 41.3
12:00 1018 30.06 848 25.04 10.5 50.9 74 6.1 42.9
12:05 1018 30.06 848 25.04 10 50 76 6 42.8
12:10 1018 30.06 848 25.04 10.1 50.2 81 6.9 44.5
12:15 1018 30.06 848 25.04 10.3 50.5 79 6.8 44.3
12:20 1018 30.06 848 25.04 10.4 50.6 79 6.8 44.3
12:25 1018 30.06 848 25.04 10.7 51.2 79 7.2 45
12:30 1018 30.06 848 25.04 10.8 51.5 75 6.7 44
12:35 1018 30.06 848 25.04 11.1 51.9 77 7.3 45.1
12:40 1018 30.06 848 25.04 11.1 52 79 7.6 45.7
12:45 1018 30.06 848 25.04 11.3 52.3 79 7.8 46.1
12:50 1018 30.06 848 25.04 12 53.5 75 7.6 45.8
12:55 1018 30.06 848 25.04 12.2 53.9 69 6.7 44
13:00 1018 30.06 848 25.04 11.9 53.4 75 7.6 45.6
13:05 1018 30.06 848 25.04 11.8 53.3 71 6.8 44.2
13:10 1018 30.06 848 25.04 11.3 52.3 74 6.9 44.5
13:15 1018 30.06 848 25.04 10.7 51.3 78 7 44.6
13:20 1018 30.06 848 25.04 10.5 50.8 77 6.6 43.8
13:25 1018 30.06 848 25.04 10.6 51 74 6.2 43.2
13:30 1018 30.06 848 25.04 10.5 51 74 6.1 43
13:35 1018 30.06 847 25.01 10.6 51.1 75 6.4 43.5
13:40 1018 30.06 847 25.01 10.9 51.7 75 6.6 43.9
13:45 1018 30.06 847 25.01 11.1 52 72 6.3 43.4
13:50 1018 30.06 847 25.01 11.6 52.8 61 4.2 39.6
13:55 1018 30.06 847 25.01 11.8 53.2 60 4.4 39.9
14:00 1018 30.06 847 25.01 12.6 54.7 56 4 39.3
14:05 1018 30.06 847 25.01 13.1 55.6 55 4.4 40
14:10 1018 30.06 847 25.01 13.2 55.7 56 4.6 40.3
14:15 1018 30.06 847 25.01 13.7 56.6 52 4.1 39.4
14:20 1018 30.06 847 25.01 14.5 58.2 52 4.8 40.6
14:25 1018 30.06 847 25.01 15.3 59.5 47 4.1 39.4
14:30 1018 30.06 847 25.01 14.9 58.8 50 4.6 40.3
14:35 1018 30.06 847 25.01 14.1 57.3 58 6.1 42.9
14:40 1018 30.06 847 25.01 12.6 54.7 73 8 46.4
14:45 1018 30.06 847 25.01 12.1 53.7 71 7.1 44.7
14:50 1018 30.06 847 25.01 11.9 53.4 69 6.4 43.5
14:55 1018 30.06 847 25.01 12.3 54.1 72 7.5 45.5
15:00 1018 30.06 847 25.01 12.5 54.6 70 7.2 44.9
15:05 1018 30.06 847 25.01 12.9 55.1 63 6.1 42.9
15:10 1018 30.06 847 25.01 12.7 54.8 61 5.4 41.7
15:15 1018 30.06 847 25.01 12.1 53.8 74 7.7 45.9
15:20 1018 30.06 847 25.01 10.7 51.3 70 5.6 42.1
15:25 1018 30.06 847 25.01 10.6 51.2 72 5.8 42.4
15:30 1018 30.06 847 25.01 10.9 51.6 78 7.1 44.8
15:35 1018 30.06 847 25.01 11 51.9 78 7.4 45.3
15:40 1018 30.06 847 25.01 11.3 52.3 72 6.4 43.5
15:45 1018 30.06 847 25.01 12 53.5 71 6.8 44.3
15:50 1018 30.06 847 25.01 12.3 54.1 68 6.7 44
15:55 1018 30.06 847 25.01 12.2 53.9 70 6.9 44.5
16:00 1018 30.06 847 25.01 12 53.5 68 6.3 43.3
16:05 1018 30.06 847 25.01 12.1 53.9 72 7.4 45.3
16:10 1018 30.06 847 25.01 12.3 54.2 66 6.3 43.3
16:15 1018 30.06 847 25.01 11.8 53.2 72 7 44.7
16:20 1018 30.06 847 25.01 11.2 52.1 75 6.9 44.5
16:25 1018 30.06 847 25.01 10.8 51.5 74 6.4 43.6
16:30 1018 30.06 847 25.01 10.7 51.2 74 6.3 43.4
16:35 1017 30.03 847 25.01 10.9 51.5 74 6.4 43.6
16:40 1017 30.03 847 25.01 11.1 51.9 73 6.5 43.7
16:45 1017 30.03 847 25.01 11.3 52.3 72 6.4 43.5
16:50 1017 30.03 847 25.01 11.7 53.1 69 6.3 43.3
16:55 1017 30.03 847 25.01 11.7 53.1 69 6.3 43.3
17:00 1017 30.03 847 25.01 11.7 53.1 68 6.1 43
17:05 1017 30.03 847 25.01 11.7 53 67 5.7 42.2
17:10 1017 30.03 847 25.01 11.6 52.9 70 6.3 43.3
17:15 1017 30.03 847 25.01 11.6 52.8 69 6.1 42.9
17:20 1017 30.03 847 25.01 11.4 52.6 69 6.1 42.9
17:25 1017 30.03 847 25.01 11.1 52 72 6.4 43.5
17:30 1017 30.03 846 24.98 11.2 52.2 72 6.4 43.5
17:35 1017 30.03 846 24.98 11.4 52.4 70 6.1 43
17:40 1017 30.03 846 24.98 11.5 52.7 66 5.5 41.8
17:45 1017 30.03 846 24.98 11.6 52.8 66 5.4 41.8
17:50 1017 30.03 846 24.98 11.7 53 65 5.4 41.7
17:55 1017 30.03 846 24.98 11.7 53 64 5.2 41.3
18:00 1017 30.03 846 24.98 11.6 52.9 66 5.6 42.1
18:05 1017 30.03 846 24.98 11.6 52.9 64 5.1 41.2
18:10 1017 30.03 846 24.98 11.8 53.2 64 5.3 41.5
18:15 1017 30.03 846 24.98 11.8 53.3 64 5.3 41.5
18:20 1017 30.03 846 24.98 11.9 53.4 65 5.5 41.9
18:25 1017 30.03 846 24.98 12 53.5 66 5.7 42.3
18:30 1017 30.03 846 24.98 12.1 53.7 65 5.8 42.5
18:35 1017 30.03 846 24.98 11.9 53.5 67 6 42.9
18:40 1017 30.03 846 24.98 11.7 53.1 67 5.9 42.6
18:45 1017 30.03 846 24.98 11.1 52 76 7 44.6
18:50 1017 30.03 846 24.98 10.6 51.2 78 7 44.6
18:55 1017 30.03 846 24.98 10.5 50.9 79 6.9 44.5
19:00 1017 30.03 846 24.98 10.5 50.9 77 6.7 44.1
19:05 1017 30.03 846 24.98 10.6 51 77 6.7 44
19:10 1017 30.03 846 24.98 10.6 51.1 76 6.5 43.8
19:15 1017 30.03 846 24.98 10.6 51.1 77 6.8 44.3
19:20 1017 30.03 846 24.98 10.6 51.1 77 6.8 44.2
19:25 1017 30.03 846 24.98 10.6 51.1 77 6.8 44.3
19:30 1017 30.03 846 24.98 10.7 51.2 78 7 44.6
19:35 1017 30.03 846 24.98 10.7 51.2 75 6.4 43.4
19:40 1017 30.03 846 24.98 10.6 51.1 73 6.1 42.9
19:45 1017 30.03 846 24.98 10.6 51.1 74 6.2 43.2
19:50 1017 30.03 846 24.98 10.6 51 74 6.2 43.2
19:55 1017 30.03 846 24.98 10.5 51 74 6.1 43
20:00 1017 30.03 846 24.98 10.5 50.9 74 6.1 43
20:05 1017 30.03 846 24.98 10.5 50.9 73 5.9 42.6
20:10 1017 30.03 846 24.98 10.5 50.9 74 6 42.8
20:15 1017 30.03 846 24.98 10.4 50.8 73 5.9 42.6
20:20 1017 30.03 847 25.01 10.4 50.7 74 5.9 42.7
20:25 1017 30.03 847 25.01 10.3 50.6 73 5.8 42.4
20:30 1017 30.03 847 25.01 10.3 50.5 73 5.7 42.2
20:35 1017 30.03 847 25.01 10.2 50.4 73 5.6 42
20:40 1017 30.03 847 25.01 10.2 50.3 74 5.7 42.3
20:45 1017 30.03 847 25.01 10.1 50.1 75 5.8 42.5
20:50 1017 30.03 847 25.01 10 50 72 5.3 41.5
20:55 1017 30.03 847 25.01 10 49.9 73 5.4 41.8
21:00 1017 30.03 847 25.01 9.8 49.7 74 5.5 41.8
21:05 1017 30.03 847 25.01 9.7 49.5 75 5.5 41.9
21:10 1017 30.03 847 25.01 9.6 49.3 74 5.3 41.5
21:15 1017 30.03 847 25.01 9.6 49.2 75 5.3 41.6
21:20 1017 30.03 847 25.01 9.4 49 75 5.3 41.5
21:25 1017 30.03 847 25.01 9.4 48.9 75 5.1 41.2
21:30 1017 30.03 847 25.01 9.4 48.9 75 5.1 41.2
21:35 1017 30.03 847 25.01 9.4 48.9 74 5.1 41.2
21:40 1017 30.03 847 25.01 9.4 49 74 5.1 41.2
21:45 1017 30.03 847 25.01 9.4 48.8 74 5 41
21:50 1017 30.03 846 24.98 9.3 48.8 74 5 41
21:55 1017 30.03 846 24.98 9.3 48.8 74 5 41
22:00 1017 30.03 846 24.98 9.3 48.8 74 5 41
22:05 1017 30.03 846 24.98 9.3 48.7 75 5 41.1
22:10 1017 30.03 846 24.98 9.2 48.6 75 5.1 41.1
22:15 1017 30.03 846 24.98 9.2 48.5 76 5.1 41.2
22:20 1017 30.03 846 24.98 9.1 48.4 76 5.1 41.2
22:25 1017 30.03 846 24.98 9.1 48.3 76 5.1 41.1
22:30 1017 30.03 846 24.98 9.1 48.4 76 5.1 41.2
22:35 1017 30.03 846 24.98 9.1 48.4 76 5.1 41.2
22:40 1017 30.03 846 24.98 9.1 48.3 76 5.1 41.2
22:45 1017 30.03 846 24.98 9.1 48.3 76 5.1 41.1
22:50 1017 30.03 846 24.98 9 48.2 77 5.1 41.2
22:55 1017 30.03 846 24.98 8.9 48 77 5.1 41.2
23:00 1017 30.03 846 24.98 8.7 47.7 78 5.1 41.1
23:05 1017 30.03 846 24.98 8.6 47.6 78 5 41
23:10 1017 30.03 846 24.98 8.6 47.5 78 5.1 41.1
23:15 1017 30.03 846 24.98 8.5 47.3 79 5 41
23:20 1017 30.03 846 24.98 8.4 47.1 79 5 41.1
23:25 1017 30.03 846 24.98 8.3 46.9 79 4.9 40.9
23:30 1017 30.03 846 24.98 8.3 46.9 79 4.8 40.7
23:35 1017 30.03 846 24.98 8.2 46.8 79 4.8 40.7
23:40 1017 30.03 846 24.98 8.1 46.6 80 4.8 40.7
23:45 1017 30.03 846 24.98 8 46.3 80 4.8 40.6
23:50 1017 30.03 846 24.98 7.8 46 81 4.8 40.6
23:55 1017 30.03 846 24.98 7.7 45.8 81 4.7 40.4
24:00 1017 30.03 846 24.98 7.6 45.7 81 4.6 40.3